sensor_id;sensor_type;location;lat;lon;timestamp;P1;durP1;ratioP1;P2;durP2;ratioP2
23782;SDS011;12071;50.850;4.446;2023-07-31T00:00:12;15.52;;;4.78;;
23782;SDS011;12071;50.850;4.446;2023-07-31T00:02:38;17.75;;;4.60;;
23782;SDS011;12071;50.850;4.446;2023-07-31T00:05:03;13.60;;;4.70;;
23782;SDS011;12071;50.850;4.446;2023-07-31T00:07:29;15.85;;;5.20;;
23782;SDS011;12071;50.850;4.446;2023-07-31T00:09:55;18.77;;;5.32;;
23782;SDS011;12071;50.850;4.446;2023-07-31T00:12:21;16.20;;;5.75;;
23782;SDS011;12071;50.850;4.446;2023-07-31T00:14:47;14.15;;;5.25;;
23782;SDS011;12071;50.850;4.446;2023-07-31T00:17:13;12.80;;;4.93;;
23782;SDS011;12071;50.850;4.446;2023-07-31T00:19:39;18.13;;;5.10;;
23782;SDS011;12071;50.850;4.446;2023-07-31T00:22:05;16.27;;;5.00;;
23782;SDS011;12071;50.850;4.446;2023-07-31T00:24:30;13.50;;;5.50;;
23782;SDS011;12071;50.850;4.446;2023-07-31T00:26:56;15.88;;;5.10;;
23782;SDS011;12071;50.850;4.446;2023-07-31T00:29:21;18.88;;;5.78;;
23782;SDS011;12071;50.850;4.446;2023-07-31T00:31:47;16.00;;;5.35;;
23782;SDS011;12071;50.850;4.446;2023-07-31T00:34:13;13.48;;;5.60;;
23782;SDS011;12071;50.850;4.446;2023-07-31T00:36:38;17.92;;;5.35;;
23782;SDS011;12071;50.850;4.446;2023-07-31T00:39:04;14.18;;;4.95;;
23782;SDS011;12071;50.850;4.446;2023-07-31T00:41:29;19.42;;;5.65;;
23782;SDS011;12071;50.850;4.446;2023-07-31T00:43:55;16.50;;;5.10;;
23782;SDS011;12071;50.850;4.446;2023-07-31T00:46:21;17.92;;;5.00;;
23782;SDS011;12071;50.850;4.446;2023-07-31T00:48:46;13.65;;;4.95;;
23782;SDS011;12071;50.850;4.446;2023-07-31T00:51:12;16.98;;;5.30;;
23782;SDS011;12071;50.850;4.446;2023-07-31T00:53:39;15.82;;;5.28;;
23782;SDS011;12071;50.850;4.446;2023-07-31T00:56:06;15.23;;;5.95;;
23782;SDS011;12071;50.850;4.446;2023-07-31T00:58:31;16.02;;;5.63;;
23782;SDS011;12071;50.850;4.446;2023-07-31T01:00:57;14.07;;;4.75;;
23782;SDS011;12071;50.850;4.446;2023-07-31T01:03:23;15.90;;;4.93;;
23782;SDS011;12071;50.850;4.446;2023-07-31T01:05:56;15.02;;;5.22;;
23782;SDS011;12071;50.850;4.446;2023-07-31T01:08:41;12.50;;;5.40;;
23782;SDS011;12071;50.850;4.446;2023-07-31T01:11:15;12.40;;;5.13;;
23782;SDS011;12071;50.850;4.446;2023-07-31T01:13:46;13.10;;;4.93;;
23782;SDS011;12071;50.850;4.446;2023-07-31T01:16:13;16.20;;;5.57;;
23782;SDS011;12071;50.850;4.446;2023-07-31T01:18:39;14.70;;;5.03;;
23782;SDS011;12071;50.850;4.446;2023-07-31T01:21:29;12.07;;;4.65;;
23782;SDS011;12071;50.850;4.446;2023-07-31T01:26:34;10.15;;;4.45;;
23782;SDS011;12071;50.850;4.446;2023-07-31T01:31:30;14.55;;;4.85;;
23782;SDS011;12071;50.850;4.446;2023-07-31T01:33:58;22.85;;;5.32;;
23782;SDS011;12071;50.850;4.446;2023-07-31T01:36:26;14.57;;;5.75;;
23782;SDS011;12071;50.850;4.446;2023-07-31T01:38:53;16.83;;;4.90;;
23782;SDS011;12071;50.850;4.446;2023-07-31T01:41:23;17.77;;;5.78;;
23782;SDS011;12071;50.850;4.446;2023-07-31T01:43:49;10.52;;;5.35;;
23782;SDS011;12071;50.850;4.446;2023-07-31T01:46:14;16.30;;;5.03;;
23782;SDS011;12071;50.850;4.446;2023-07-31T01:48:40;12.18;;;4.82;;
23782;SDS011;12071;50.850;4.446;2023-07-31T01:51:06;17.48;;;5.60;;
23782;SDS011;12071;50.850;4.446;2023-07-31T01:53:31;16.58;;;5.47;;
23782;SDS011;12071;50.850;4.446;2023-07-31T01:55:57;13.90;;;5.78;;
23782;SDS011;12071;50.850;4.446;2023-07-31T01:58:23;11.70;;;5.70;;
23782;SDS011;12071;50.850;4.446;2023-07-31T02:00:48;15.18;;;5.93;;
23782;SDS011;12071;50.850;4.446;2023-07-31T02:03:14;14.75;;;5.88;;
23782;SDS011;12071;50.850;4.446;2023-07-31T02:05:48;10.75;;;5.55;;
23782;SDS011;12071;50.850;4.446;2023-07-31T02:08:15;12.52;;;5.90;;
23782;SDS011;12071;50.850;4.446;2023-07-31T02:10:41;18.55;;;5.35;;
23782;SDS011;12071;50.850;4.446;2023-07-31T02:13:07;11.38;;;5.43;;
23782;SDS011;12071;50.850;4.446;2023-07-31T02:15:33;17.48;;;6.05;;
23782;SDS011;12071;50.850;4.446;2023-07-31T02:17:59;11.10;;;5.15;;
23782;SDS011;12071;50.850;4.446;2023-07-31T02:20:24;14.45;;;5.68;;
23782;SDS011;12071;50.850;4.446;2023-07-31T02:22:50;13.05;;;5.60;;
23782;SDS011;12071;50.850;4.446;2023-07-31T02:25:16;16.65;;;6.22;;
23782;SDS011;12071;50.850;4.446;2023-07-31T02:27:41;12.27;;;5.40;;
23782;SDS011;12071;50.850;4.446;2023-07-31T02:30:07;12.23;;;6.40;;
23782;SDS011;12071;50.850;4.446;2023-07-31T02:32:34;11.95;;;5.85;;
23782;SDS011;12071;50.850;4.446;2023-07-31T02:34:59;14.20;;;5.15;;
23782;SDS011;12071;50.850;4.446;2023-07-31T02:37:25;15.40;;;6.03;;
23782;SDS011;12071;50.850;4.446;2023-07-31T02:39:51;13.63;;;6.18;;
23782;SDS011;12071;50.850;4.446;2023-07-31T02:42:16;11.80;;;5.65;;
23782;SDS011;12071;50.850;4.446;2023-07-31T02:44:42;12.68;;;5.45;;
23782;SDS011;12071;50.850;4.446;2023-07-31T02:47:08;11.38;;;5.47;;
23782;SDS011;12071;50.850;4.446;2023-07-31T02:49:33;8.38;;;5.10;;
23782;SDS011;12071;50.850;4.446;2023-07-31T02:51:59;11.20;;;5.07;;
23782;SDS011;12071;50.850;4.446;2023-07-31T02:54:25;10.32;;;4.95;;
23782;SDS011;12071;50.850;4.446;2023-07-31T02:56:50;10.82;;;5.10;;
23782;SDS011;12071;50.850;4.446;2023-07-31T02:59:16;10.52;;;4.68;;
23782;SDS011;12071;50.850;4.446;2023-07-31T03:01:42;13.00;;;4.97;;
23782;SDS011;12071;50.850;4.446;2023-07-31T03:04:08;10.23;;;4.90;;
23782;SDS011;12071;50.850;4.446;2023-07-31T03:06:34;11.45;;;4.38;;
23782;SDS011;12071;50.850;4.446;2023-07-31T03:08:59;9.77;;;4.78;;
23782;SDS011;12071;50.850;4.446;2023-07-31T03:11:25;8.85;;;4.63;;
23782;SDS011;12071;50.850;4.446;2023-07-31T03:13:50;8.30;;;4.65;;
23782;SDS011;12071;50.850;4.446;2023-07-31T03:16:16;12.23;;;4.32;;
23782;SDS011;12071;50.850;4.446;2023-07-31T03:18:41;7.50;;;4.18;;
23782;SDS011;12071;50.850;4.446;2023-07-31T03:21:07;7.45;;;4.65;;
23782;SDS011;12071;50.850;4.446;2023-07-31T03:23:32;8.20;;;4.80;;
23782;SDS011;12071;50.850;4.446;2023-07-31T03:26:02;9.48;;;4.45;;
23782;SDS011;12071;50.850;4.446;2023-07-31T03:28:30;10.77;;;4.80;;
23782;SDS011;12071;50.850;4.446;2023-07-31T03:30:56;7.82;;;4.68;;
23782;SDS011;12071;50.850;4.446;2023-07-31T03:33:22;10.45;;;4.72;;
23782;SDS011;12071;50.850;4.446;2023-07-31T03:35:47;11.90;;;5.38;;
23782;SDS011;12071;50.850;4.446;2023-07-31T03:38:13;9.80;;;4.80;;
23782;SDS011;12071;50.850;4.446;2023-07-31T03:40:39;12.23;;;5.45;;
23782;SDS011;12071;50.850;4.446;2023-07-31T03:43:05;11.52;;;5.35;;
23782;SDS011;12071;50.850;4.446;2023-07-31T03:45:30;8.95;;;5.00;;
23782;SDS011;12071;50.850;4.446;2023-07-31T03:47:56;7.53;;;5.00;;
23782;SDS011;12071;50.850;4.446;2023-07-31T03:50:22;9.77;;;5.10;;
23782;SDS011;12071;50.850;4.446;2023-07-31T03:52:47;10.73;;;5.30;;
23782;SDS011;12071;50.850;4.446;2023-07-31T03:55:13;7.47;;;4.80;;
23782;SDS011;12071;50.850;4.446;2023-07-31T03:57:39;11.90;;;5.30;;
23782;SDS011;12071;50.850;4.446;2023-07-31T04:00:04;9.57;;;4.90;;
23782;SDS011;12071;50.850;4.446;2023-07-31T04:02:30;13.07;;;4.95;;
23782;SDS011;12071;50.850;4.446;2023-07-31T04:04:56;9.68;;;5.10;;
23782;SDS011;12071;50.850;4.446;2023-07-31T04:07:21;9.13;;;5.18;;
23782;SDS011;12071;50.850;4.446;2023-07-31T04:09:47;11.02;;;5.20;;
23782;SDS011;12071;50.850;4.446;2023-07-31T04:12:12;11.68;;;5.00;;
23782;SDS011;12071;50.850;4.446;2023-07-31T04:14:38;10.13;;;5.38;;
23782;SDS011;12071;50.850;4.446;2023-07-31T04:17:04;11.18;;;4.47;;
23782;SDS011;12071;50.850;4.446;2023-07-31T04:19:29;12.18;;;5.07;;
23782;SDS011;12071;50.850;4.446;2023-07-31T04:21:55;8.85;;;4.90;;
23782;SDS011;12071;50.850;4.446;2023-07-31T04:24:20;8.88;;;5.00;;
23782;SDS011;12071;50.850;4.446;2023-07-31T04:26:52;14.00;;;5.32;;
23782;SDS011;12071;50.850;4.446;2023-07-31T04:29:18;11.25;;;5.13;;
23782;SDS011;12071;50.850;4.446;2023-07-31T04:31:44;11.15;;;5.53;;
23782;SDS011;12071;50.850;4.446;2023-07-31T04:34:09;10.70;;;5.03;;
23782;SDS011;12071;50.850;4.446;2023-07-31T04:36:36;10.35;;;5.05;;
23782;SDS011;12071;50.850;4.446;2023-07-31T04:39:02;10.50;;;5.00;;
23782;SDS011;12071;50.850;4.446;2023-07-31T04:41:27;11.98;;;4.68;;
23782;SDS011;12071;50.850;4.446;2023-07-31T04:43:53;10.07;;;4.28;;
23782;SDS011;12071;50.850;4.446;2023-07-31T04:46:18;10.20;;;4.65;;
23782;SDS011;12071;50.850;4.446;2023-07-31T04:48:44;9.57;;;4.55;;
23782;SDS011;12071;50.850;4.446;2023-07-31T04:51:10;10.48;;;4.93;;
23782;SDS011;12071;50.850;4.446;2023-07-31T04:53:35;10.50;;;5.28;;
23782;SDS011;12071;50.850;4.446;2023-07-31T04:56:01;8.82;;;4.30;;
23782;SDS011;12071;50.850;4.446;2023-07-31T04:58:27;9.63;;;4.55;;
23782;SDS011;12071;50.850;4.446;2023-07-31T05:00:52;8.25;;;4.15;;
23782;SDS011;12071;50.850;4.446;2023-07-31T05:03:18;7.43;;;4.70;;
23782;SDS011;12071;50.850;4.446;2023-07-31T05:05:43;10.32;;;4.25;;
23782;SDS011;12071;50.850;4.446;2023-07-31T05:08:09;10.55;;;4.55;;
23782;SDS011;12071;50.850;4.446;2023-07-31T05:10:34;9.45;;;4.78;;
23782;SDS011;12071;50.850;4.446;2023-07-31T05:13:00;13.35;;;4.78;;
23782;SDS011;12071;50.850;4.446;2023-07-31T05:15:26;8.50;;;4.72;;
23782;SDS011;12071;50.850;4.446;2023-07-31T05:17:51;9.35;;;5.05;;
23782;SDS011;12071;50.850;4.446;2023-07-31T05:20:17;6.82;;;4.50;;
23782;SDS011;12071;50.850;4.446;2023-07-31T05:22:42;8.75;;;5.00;;
23782;SDS011;12071;50.850;4.446;2023-07-31T05:25:09;12.88;;;5.00;;
23782;SDS011;12071;50.850;4.446;2023-07-31T05:27:35;12.65;;;5.10;;
23782;SDS011;12071;50.850;4.446;2023-07-31T05:30:00;9.60;;;5.10;;
23782;SDS011;12071;50.850;4.446;2023-07-31T05:32:26;10.90;;;4.53;;
23782;SDS011;12071;50.850;4.446;2023-07-31T05:34:52;10.95;;;4.90;;
23782;SDS011;12071;50.850;4.446;2023-07-31T05:37:18;11.60;;;5.45;;
23782;SDS011;12071;50.850;4.446;2023-07-31T05:39:44;12.77;;;5.50;;
23782;SDS011;12071;50.850;4.446;2023-07-31T05:42:10;11.63;;;4.93;;
23782;SDS011;12071;50.850;4.446;2023-07-31T05:44:36;8.70;;;4.68;;
23782;SDS011;12071;50.850;4.446;2023-07-31T05:47:02;12.85;;;5.13;;
23782;SDS011;12071;50.850;4.446;2023-07-31T05:49:27;9.35;;;5.05;;
23782;SDS011;12071;50.850;4.446;2023-07-31T05:51:53;15.15;;;5.20;;
23782;SDS011;12071;50.850;4.446;2023-07-31T05:54:18;8.50;;;4.80;;
23782;SDS011;12071;50.850;4.446;2023-07-31T05:56:44;7.93;;;4.93;;
23782;SDS011;12071;50.850;4.446;2023-07-31T05:59:11;10.82;;;4.53;;
23782;SDS011;12071;50.850;4.446;2023-07-31T06:01:38;13.35;;;5.50;;
23782;SDS011;12071;50.850;4.446;2023-07-31T06:04:04;12.40;;;5.30;;
23782;SDS011;12071;50.850;4.446;2023-07-31T06:06:30;11.75;;;5.00;;
23782;SDS011;12071;50.850;4.446;2023-07-31T06:08:55;10.95;;;4.43;;
23782;SDS011;12071;50.850;4.446;2023-07-31T06:11:21;11.00;;;4.63;;
23782;SDS011;12071;50.850;4.446;2023-07-31T06:13:47;13.13;;;4.60;;
23782;SDS011;12071;50.850;4.446;2023-07-31T06:16:14;10.65;;;4.13;;
23782;SDS011;12071;50.850;4.446;2023-07-31T06:18:40;11.85;;;4.88;;
23782;SDS011;12071;50.850;4.446;2023-07-31T06:21:06;9.70;;;4.40;;
23782;SDS011;12071;50.850;4.446;2023-07-31T06:23:32;8.88;;;4.88;;
23782;SDS011;12071;50.850;4.446;2023-07-31T06:25:58;10.75;;;5.03;;
23782;SDS011;12071;50.850;4.446;2023-07-31T06:28:27;10.43;;;4.97;;
23782;SDS011;12071;50.850;4.446;2023-07-31T06:30:54;8.80;;;4.88;;
23782;SDS011;12071;50.850;4.446;2023-07-31T06:33:20;8.85;;;4.55;;
23782;SDS011;12071;50.850;4.446;2023-07-31T06:35:45;10.35;;;4.28;;
23782;SDS011;12071;50.850;4.446;2023-07-31T06:38:11;8.10;;;4.45;;
23782;SDS011;12071;50.850;4.446;2023-07-31T06:40:36;8.52;;;3.85;;
23782;SDS011;12071;50.850;4.446;2023-07-31T06:43:02;9.52;;;4.60;;
23782;SDS011;12071;50.850;4.446;2023-07-31T06:45:36;7.70;;;4.20;;
23782;SDS011;12071;50.850;4.446;2023-07-31T06:48:03;10.43;;;4.28;;
23782;SDS011;12071;50.850;4.446;2023-07-31T06:50:29;8.48;;;3.85;;
23782;SDS011;12071;50.850;4.446;2023-07-31T06:52:55;8.75;;;4.03;;
23782;SDS011;12071;50.850;4.446;2023-07-31T06:55:21;11.45;;;3.92;;
23782;SDS011;12071;50.850;4.446;2023-07-31T06:57:48;8.93;;;4.05;;
23782;SDS011;12071;50.850;4.446;2023-07-31T07:00:14;9.55;;;4.07;;
23782;SDS011;12071;50.850;4.446;2023-07-31T07:02:40;13.55;;;3.90;;
23782;SDS011;12071;50.850;4.446;2023-07-31T07:05:06;8.70;;;3.45;;
23782;SDS011;12071;50.850;4.446;2023-07-31T07:07:33;10.57;;;3.90;;
23782;SDS011;12071;50.850;4.446;2023-07-31T07:09:59;9.60;;;3.65;;
23782;SDS011;12071;50.850;4.446;2023-07-31T07:12:25;9.30;;;3.70;;
23782;SDS011;12071;50.850;4.446;2023-07-31T07:14:51;6.10;;;3.72;;
23782;SDS011;12071;50.850;4.446;2023-07-31T07:17:18;8.13;;;3.50;;
23782;SDS011;12071;50.850;4.446;2023-07-31T07:19:44;6.55;;;3.25;;
23782;SDS011;12071;50.850;4.446;2023-07-31T07:22:10;7.13;;;3.22;;
23782;SDS011;12071;50.850;4.446;2023-07-31T07:24:36;9.02;;;3.60;;
23782;SDS011;12071;50.850;4.446;2023-07-31T07:27:02;6.70;;;3.13;;
23782;SDS011;12071;50.850;4.446;2023-07-31T07:29:28;7.05;;;3.47;;
23782;SDS011;12071;50.850;4.446;2023-07-31T07:31:54;7.28;;;3.15;;
23782;SDS011;12071;50.850;4.446;2023-07-31T07:34:22;7.22;;;3.17;;
23782;SDS011;12071;50.850;4.446;2023-07-31T07:36:49;5.53;;;3.05;;
23782;SDS011;12071;50.850;4.446;2023-07-31T07:39:14;10.32;;;3.35;;
23782;SDS011;12071;50.850;4.446;2023-07-31T07:41:40;4.30;;;2.88;;
23782;SDS011;12071;50.850;4.446;2023-07-31T07:44:06;7.30;;;3.15;;
23782;SDS011;12071;50.850;4.446;2023-07-31T07:46:32;7.20;;;3.25;;
23782;SDS011;12071;50.850;4.446;2023-07-31T07:48:58;5.40;;;2.53;;
23782;SDS011;12071;50.850;4.446;2023-07-31T07:51:23;8.43;;;3.17;;
23782;SDS011;12071;50.850;4.446;2023-07-31T07:53:49;6.55;;;3.00;;
23782;SDS011;12071;50.850;4.446;2023-07-31T07:56:14;10.10;;;3.15;;
23782;SDS011;12071;50.850;4.446;2023-07-31T07:58:40;6.93;;;3.20;;
23782;SDS011;12071;50.850;4.446;2023-07-31T08:01:06;6.05;;;3.28;;
23782;SDS011;12071;50.850;4.446;2023-07-31T08:03:31;4.00;;;2.33;;
23782;SDS011;12071;50.850;4.446;2023-07-31T08:06:00;7.78;;;3.00;;
23782;SDS011;12071;50.850;4.446;2023-07-31T08:08:26;8.80;;;3.08;;
23782;SDS011;12071;50.850;4.446;2023-07-31T08:10:53;4.95;;;2.80;;
23782;SDS011;12071;50.850;4.446;2023-07-31T08:13:18;7.30;;;3.25;;
23782;SDS011;12071;50.850;4.446;2023-07-31T08:15:44;6.47;;;3.45;;
23782;SDS011;12071;50.850;4.446;2023-07-31T08:18:10;5.22;;;2.78;;
23782;SDS011;12071;50.850;4.446;2023-07-31T08:20:38;7.50;;;3.47;;
23782;SDS011;12071;50.850;4.446;2023-07-31T08:23:04;8.23;;;3.25;;
23782;SDS011;12071;50.850;4.446;2023-07-31T08:25:30;7.53;;;3.20;;
23782;SDS011;12071;50.850;4.446;2023-07-31T08:27:55;9.07;;;3.05;;
23782;SDS011;12071;50.850;4.446;2023-07-31T08:30:21;6.88;;;3.08;;
23782;SDS011;12071;50.850;4.446;2023-07-31T08:32:47;6.88;;;3.03;;
23782;SDS011;12071;50.850;4.446;2023-07-31T08:35:12;5.28;;;2.80;;
23782;SDS011;12071;50.850;4.446;2023-07-31T08:37:38;6.82;;;2.72;;
23782;SDS011;12071;50.850;4.446;2023-07-31T08:40:04;7.30;;;2.63;;
23782;SDS011;12071;50.850;4.446;2023-07-31T08:42:33;5.00;;;2.83;;
23782;SDS011;12071;50.850;4.446;2023-07-31T08:44:59;7.38;;;3.00;;
23782;SDS011;12071;50.850;4.446;2023-07-31T08:47:26;5.65;;;3.10;;
23782;SDS011;12071;50.850;4.446;2023-07-31T08:49:53;7.53;;;3.03;;
23782;SDS011;12071;50.850;4.446;2023-07-31T08:52:20;6.90;;;3.17;;
23782;SDS011;12071;50.850;4.446;2023-07-31T08:54:46;8.02;;;2.67;;
23782;SDS011;12071;50.850;4.446;2023-07-31T08:57:12;8.65;;;3.13;;
23782;SDS011;12071;50.850;4.446;2023-07-31T08:59:38;10.95;;;3.65;;
23782;SDS011;12071;50.850;4.446;2023-07-31T09:02:06;7.60;;;2.92;;
23782;SDS011;12071;50.850;4.446;2023-07-31T09:04:33;6.93;;;2.67;;
23782;SDS011;12071;50.850;4.446;2023-07-31T09:07:01;7.82;;;3.17;;
23782;SDS011;12071;50.850;4.446;2023-07-31T09:09:29;4.25;;;3.03;;
23782;SDS011;12071;50.850;4.446;2023-07-31T09:11:56;6.18;;;3.03;;
23782;SDS011;12071;50.850;4.446;2023-07-31T09:14:24;6.35;;;3.17;;
23782;SDS011;12071;50.850;4.446;2023-07-31T09:16:52;10.80;;;3.85;;
23782;SDS011;12071;50.850;4.446;2023-07-31T09:19:25;7.03;;;3.13;;
23782;SDS011;12071;50.850;4.446;2023-07-31T09:21:52;7.03;;;2.70;;
23782;SDS011;12071;50.850;4.446;2023-07-31T09:24:27;7.82;;;3.88;;
23782;SDS011;12071;50.850;4.446;2023-07-31T09:26:54;6.03;;;3.65;;
23782;SDS011;12071;50.850;4.446;2023-07-31T09:29:21;8.82;;;3.53;;
23782;SDS011;12071;50.850;4.446;2023-07-31T09:31:47;8.45;;;3.55;;
23782;SDS011;12071;50.850;4.446;2023-07-31T09:34:13;8.88;;;3.97;;
23782;SDS011;12071;50.850;4.446;2023-07-31T09:36:46;9.57;;;3.95;;
23782;SDS011;12071;50.850;4.446;2023-07-31T09:39:14;9.88;;;3.92;;
23782;SDS011;12071;50.850;4.446;2023-07-31T09:41:45;7.97;;;4.03;;
23782;SDS011;12071;50.850;4.446;2023-07-31T09:44:20;8.68;;;3.63;;
23782;SDS011;12071;50.850;4.446;2023-07-31T09:46:46;8.80;;;3.75;;
23782;SDS011;12071;50.850;4.446;2023-07-31T09:49:12;6.30;;;3.75;;
23782;SDS011;12071;50.850;4.446;2023-07-31T09:51:39;8.95;;;4.03;;
23782;SDS011;12071;50.850;4.446;2023-07-31T09:54:15;8.00;;;3.35;;
23782;SDS011;12071;50.850;4.446;2023-07-31T09:56:48;7.30;;;4.00;;
23782;SDS011;12071;50.850;4.446;2023-07-31T09:59:18;7.13;;;4.10;;
23782;SDS011;12071;50.850;4.446;2023-07-31T10:01:45;9.30;;;4.05;;
23782;SDS011;12071;50.850;4.446;2023-07-31T10:04:12;8.00;;;4.28;;
23782;SDS011;12071;50.850;4.446;2023-07-31T10:06:42;8.25;;;4.43;;
23782;SDS011;12071;50.850;4.446;2023-07-31T10:09:10;6.45;;;4.00;;
23782;SDS011;12071;50.850;4.446;2023-07-31T10:11:47;8.93;;;4.60;;
23782;SDS011;12071;50.850;4.446;2023-07-31T10:14:18;9.85;;;5.05;;
23782;SDS011;12071;50.850;4.446;2023-07-31T10:16:45;8.02;;;4.78;;
23782;SDS011;12071;50.850;4.446;2023-07-31T10:19:11;13.07;;;5.35;;
23782;SDS011;12071;50.850;4.446;2023-07-31T10:21:37;9.98;;;5.00;;
23782;SDS011;12071;50.850;4.446;2023-07-31T10:24:05;12.38;;;5.40;;
23782;SDS011;12071;50.850;4.446;2023-07-31T10:26:32;10.70;;;5.47;;
23782;SDS011;12071;50.850;4.446;2023-07-31T10:29:00;12.95;;;5.28;;
23782;SDS011;12071;50.850;4.446;2023-07-31T10:31:26;10.20;;;4.60;;
23782;SDS011;12071;50.850;4.446;2023-07-31T10:33:53;10.52;;;4.93;;
23782;SDS011;12071;50.850;4.446;2023-07-31T10:36:20;12.95;;;5.45;;
23782;SDS011;12071;50.850;4.446;2023-07-31T10:38:49;9.32;;;4.30;;
23782;SDS011;12071;50.850;4.446;2023-07-31T10:43:45;11.55;;;5.03;;
23782;SDS011;12071;50.850;4.446;2023-07-31T10:46:12;11.13;;;5.45;;
23782;SDS011;12071;50.850;4.446;2023-07-31T10:48:39;10.05;;;5.03;;
23782;SDS011;12071;50.850;4.446;2023-07-31T10:51:10;9.13;;;4.32;;
23782;SDS011;12071;50.850;4.446;2023-07-31T10:53:40;10.40;;;4.55;;
23782;SDS011;12071;50.850;4.446;2023-07-31T10:56:10;11.23;;;4.75;;
23782;SDS011;12071;50.850;4.446;2023-07-31T10:58:43;10.48;;;4.65;;
23782;SDS011;12071;50.850;4.446;2023-07-31T11:01:11;7.97;;;4.53;;
23782;SDS011;12071;50.850;4.446;2023-07-31T11:03:49;10.07;;;5.03;;
23782;SDS011;12071;50.850;4.446;2023-07-31T11:06:18;9.25;;;5.05;;
23782;SDS011;12071;50.850;4.446;2023-07-31T11:08:44;10.45;;;5.40;;
23782;SDS011;12071;50.850;4.446;2023-07-31T11:11:15;13.18;;;4.65;;
23782;SDS011;12071;50.850;4.446;2023-07-31T11:13:49;10.15;;;4.20;;
23782;SDS011;12071;50.850;4.446;2023-07-31T11:16:20;11.63;;;4.47;;
23782;SDS011;12071;50.850;4.446;2023-07-31T11:18:47;9.75;;;4.90;;
23782;SDS011;12071;50.850;4.446;2023-07-31T11:23:40;9.13;;;4.38;;
23782;SDS011;12071;50.850;4.446;2023-07-31T11:26:06;9.20;;;4.82;;
23782;SDS011;12071;50.850;4.446;2023-07-31T11:28:33;10.25;;;4.78;;
23782;SDS011;12071;50.850;4.446;2023-07-31T11:30:59;11.13;;;5.20;;
23782;SDS011;12071;50.850;4.446;2023-07-31T11:33:25;10.65;;;4.32;;
23782;SDS011;12071;50.850;4.446;2023-07-31T11:35:51;10.27;;;5.05;;
23782;SDS011;12071;50.850;4.446;2023-07-31T11:38:23;10.25;;;4.85;;
23782;SDS011;12071;50.850;4.446;2023-07-31T11:40:59;8.25;;;4.43;;
23782;SDS011;12071;50.850;4.446;2023-07-31T11:43:29;8.07;;;4.28;;
23782;SDS011;12071;50.850;4.446;2023-07-31T11:45:56;8.93;;;4.15;;
23782;SDS011;12071;50.850;4.446;2023-07-31T11:50:51;10.75;;;4.95;;
23782;SDS011;12071;50.850;4.446;2023-07-31T11:53:21;11.32;;;4.38;;
23782;SDS011;12071;50.850;4.446;2023-07-31T11:56:00;12.13;;;4.85;;
23782;SDS011;12071;50.850;4.446;2023-07-31T11:58:29;8.20;;;4.40;;
23782;SDS011;12071;50.850;4.446;2023-07-31T12:00:56;9.93;;;4.68;;
23782;SDS011;12071;50.850;4.446;2023-07-31T12:03:23;8.48;;;4.45;;
23782;SDS011;12071;50.850;4.446;2023-07-31T12:05:48;9.35;;;4.32;;
23782;SDS011;12071;50.850;4.446;2023-07-31T12:08:14;8.77;;;4.50;;
23782;SDS011;12071;50.850;4.446;2023-07-31T12:10:41;12.32;;;4.90;;
23782;SDS011;12071;50.850;4.446;2023-07-31T12:13:10;6.70;;;3.63;;
23782;SDS011;12071;50.850;4.446;2023-07-31T12:15:41;9.70;;;3.95;;
23782;SDS011;12071;50.850;4.446;2023-07-31T12:18:15;9.60;;;3.92;;
23782;SDS011;12071;50.850;4.446;2023-07-31T12:20:45;10.45;;;4.43;;
23782;SDS011;12071;50.850;4.446;2023-07-31T12:23:34;8.13;;;3.67;;
23782;SDS011;12071;50.850;4.446;2023-07-31T12:26:15;9.73;;;4.53;;
23782;SDS011;12071;50.850;4.446;2023-07-31T12:28:42;12.93;;;4.50;;
23782;SDS011;12071;50.850;4.446;2023-07-31T12:31:13;10.73;;;4.30;;
23782;SDS011;12071;50.850;4.446;2023-07-31T12:33:42;10.85;;;4.47;;
23782;SDS011;12071;50.850;4.446;2023-07-31T12:36:15;10.50;;;4.25;;
23782;SDS011;12071;50.850;4.446;2023-07-31T12:38:42;8.10;;;4.20;;
23782;SDS011;12071;50.850;4.446;2023-07-31T12:41:08;6.63;;;4.07;;
23782;SDS011;12071;50.850;4.446;2023-07-31T12:43:34;17.17;;;4.68;;
23782;SDS011;12071;50.850;4.446;2023-07-31T12:46:01;10.52;;;4.80;;
23782;SDS011;12071;50.850;4.446;2023-07-31T12:48:27;10.45;;;4.40;;
23782;SDS011;12071;50.850;4.446;2023-07-31T12:50:52;10.32;;;4.15;;
23782;SDS011;12071;50.850;4.446;2023-07-31T12:53:18;8.27;;;4.38;;
23782;SDS011;12071;50.850;4.446;2023-07-31T12:55:43;9.63;;;4.13;;
23782;SDS011;12071;50.850;4.446;2023-07-31T12:58:09;9.15;;;4.93;;
23782;SDS011;12071;50.850;4.446;2023-07-31T13:00:35;9.65;;;4.80;;
23782;SDS011;12071;50.850;4.446;2023-07-31T13:03:00;10.13;;;4.40;;
23782;SDS011;12071;50.850;4.446;2023-07-31T13:05:27;9.02;;;4.20;;
23782;SDS011;12071;50.850;4.446;2023-07-31T13:07:53;11.40;;;4.70;;
23782;SDS011;12071;50.850;4.446;2023-07-31T13:10:18;9.95;;;4.30;;
23782;SDS011;12071;50.850;4.446;2023-07-31T13:12:44;9.27;;;4.47;;
23782;SDS011;12071;50.850;4.446;2023-07-31T13:15:10;9.30;;;4.05;;
23782;SDS011;12071;50.850;4.446;2023-07-31T13:17:37;8.23;;;4.15;;
23782;SDS011;12071;50.850;4.446;2023-07-31T13:20:03;8.02;;;3.75;;
23782;SDS011;12071;50.850;4.446;2023-07-31T13:22:29;9.98;;;4.60;;
23782;SDS011;12071;50.850;4.446;2023-07-31T13:24:55;5.72;;;2.92;;
23782;SDS011;12071;50.850;4.446;2023-07-31T13:27:21;9.15;;;3.47;;
23782;SDS011;12071;50.850;4.446;2023-07-31T13:29:50;5.82;;;3.25;;
23782;SDS011;12071;50.850;4.446;2023-07-31T13:32:16;6.63;;;3.00;;
23782;SDS011;12071;50.850;4.446;2023-07-31T13:34:43;10.20;;;3.72;;
23782;SDS011;12071;50.850;4.446;2023-07-31T13:37:09;7.10;;;3.78;;
23782;SDS011;12071;50.850;4.446;2023-07-31T13:39:35;6.40;;;3.25;;
23782;SDS011;12071;50.850;4.446;2023-07-31T13:42:02;6.40;;;3.28;;
23782;SDS011;12071;50.850;4.446;2023-07-31T13:44:28;7.32;;;3.50;;
23782;SDS011;12071;50.850;4.446;2023-07-31T13:46:54;4.97;;;3.38;;
23782;SDS011;12071;50.850;4.446;2023-07-31T13:49:19;7.68;;;3.40;;
23782;SDS011;12071;50.850;4.446;2023-07-31T13:51:45;6.95;;;3.75;;
23782;SDS011;12071;50.850;4.446;2023-07-31T13:54:11;8.35;;;3.40;;
23782;SDS011;12071;50.850;4.446;2023-07-31T13:56:37;7.60;;;3.30;;
23782;SDS011;12071;50.850;4.446;2023-07-31T13:59:03;7.55;;;3.60;;
23782;SDS011;12071;50.850;4.446;2023-07-31T14:01:29;5.28;;;3.20;;
23782;SDS011;12071;50.850;4.446;2023-07-31T14:03:55;5.75;;;3.45;;
23782;SDS011;12071;50.850;4.446;2023-07-31T14:06:20;6.80;;;3.40;;
23782;SDS011;12071;50.850;4.446;2023-07-31T14:08:46;4.35;;;3.20;;
23782;SDS011;12071;50.850;4.446;2023-07-31T14:11:11;10.55;;;3.92;;
23782;SDS011;12071;50.850;4.446;2023-07-31T14:13:37;8.15;;;3.35;;
23782;SDS011;12071;50.850;4.446;2023-07-31T14:16:03;6.95;;;3.60;;
23782;SDS011;12071;50.850;4.446;2023-07-31T14:18:28;5.43;;;3.30;;
23782;SDS011;12071;50.850;4.446;2023-07-31T14:20:54;6.95;;;3.42;;
23782;SDS011;12071;50.850;4.446;2023-07-31T14:23:20;6.93;;;3.30;;
23782;SDS011;12071;50.850;4.446;2023-07-31T14:25:46;6.25;;;3.53;;
23782;SDS011;12071;50.850;4.446;2023-07-31T14:28:12;10.20;;;4.43;;
23782;SDS011;12071;50.850;4.446;2023-07-31T14:30:37;6.00;;;4.00;;
23782;SDS011;12071;50.850;4.446;2023-07-31T14:33:03;5.90;;;3.72;;
23782;SDS011;12071;50.850;4.446;2023-07-31T14:35:28;5.78;;;3.05;;
23782;SDS011;12071;50.850;4.446;2023-07-31T14:37:54;6.35;;;3.42;;
23782;SDS011;12071;50.850;4.446;2023-07-31T14:40:20;5.28;;;3.00;;
23782;SDS011;12071;50.850;4.446;2023-07-31T14:42:45;7.13;;;3.00;;
23782;SDS011;12071;50.850;4.446;2023-07-31T14:45:11;6.68;;;3.42;;
23782;SDS011;12071;50.850;4.446;2023-07-31T14:47:37;5.03;;;2.78;;
23782;SDS011;12071;50.850;4.446;2023-07-31T14:50:02;3.85;;;2.45;;